»·PEaware :: DAL1142 KPDX-KSLC

DAL1142 :: KPDX-KSLC

FLIGHT INFORMATION

Flight Status: Arrived
Operator:
Delta Air Lines
More flights by this operator :: More flights under this callsign
Pilot: Anonymous 12234 (12234)
Aircraft: BOEING 737-800
(B738)
More flights by this aircraft type
Origin: KPDX Portland Intl
United States
Destination: KSLC Salt Lake City Intl
United States
More flights between these airports :: More routes between these airports
Route: WHAMY4 IMB J15 BOI BYI SKEES5
File this flight plan on PilotEdge
Remarks:
Altitude:
(Current/Filed)
37,000ft
Speed:
(Current/Filed)
455kts
Departed: 07-Jul-18 05:11 PM
Arrived: 07-Jul-18 06:35 PM
Distance/Time
Traveled:
546nm/1:24
Distance/Time
To Go:
Arrived

Flight Plot

Page will automatically refresh every two minutes.

Flight plan parsing failed; only flown route is shown


Map Options




Map Legend


Flown Route
Filed Route
Departure Airport
Arrival Airport
Navaid (VOR, NDB)
Fix

Horizontal Profiles

Position Reports

Time Latitude Longitude Heading Altitude Ground
Speed
07-Jul-18 16:40 45.591588 -122.595194 196 37ft 0kts
07-Jul-18 16:41 45.591588 -122.595194 196 37ft 0kts
07-Jul-18 16:42 45.591588 -122.595194 196 37ft 0kts
07-Jul-18 16:43 45.591588 -122.595194 196 37ft 0kts
07-Jul-18 16:44 45.591588 -122.595194 196 37ft 0kts
07-Jul-18 16:45 45.591588 -122.595194 196 37ft 0kts
07-Jul-18 16:46 45.591588 -122.595194 196 37ft 0kts
07-Jul-18 16:47 45.591588 -122.595194 196 37ft 0kts
07-Jul-18 16:48 45.591588 -122.595194 196 37ft 0kts
07-Jul-18 16:49 45.591588 -122.595194 196 37ft 0kts
07-Jul-18 16:50 45.591588 -122.595194 196 37ft 0kts
07-Jul-18 16:51 45.591588 -122.595194 196 37ft 0kts
07-Jul-18 16:52 45.591588 -122.595194 196 37ft 0kts
07-Jul-18 16:53 45.591588 -122.595194 196 37ft 0kts
07-Jul-18 16:54 45.591588 -122.595194 196 37ft 0kts
07-Jul-18 16:55 45.591588 -122.595194 196 37ft 0kts
07-Jul-18 16:56 45.591588 -122.595194 196 37ft 0kts
07-Jul-18 16:57 45.591588 -122.595194 196 37ft 0kts
07-Jul-18 16:58 45.591588 -122.595194 196 37ft 0kts
07-Jul-18 16:59 45.591588 -122.595194 196 37ft 0kts
07-Jul-18 17:00 45.591691 -122.595150 196 37ft 2kts
07-Jul-18 17:01 45.592254 -122.594916 196 37ft 0kts
07-Jul-18 17:02 45.592328 -122.594641 119 37ft 1kts
07-Jul-18 17:03 45.592317 -122.594612 119 37ft 0kts
07-Jul-18 17:04 45.592317 -122.594612 119 37ft 0kts
07-Jul-18 17:05 45.592317 -122.594612 119 37ft 0kts
07-Jul-18 17:06 45.592174 -122.594243 117 36ft 7kts
07-Jul-18 17:07 45.590930 -122.588924 119 37ft 19kts
07-Jul-18 17:08 45.588194 -122.581916 119 37ft 21kts
07-Jul-18 17:09 45.585290 -122.574428 120 37ft 22kts
07-Jul-18 17:10 45.582758 -122.567955 110 37ft 7kts
07-Jul-18 17:11 45.583938 -122.567810 297 37ft 23kts
07-Jul-18 17:12 45.601087 -122.611335 300 612ft 180kts
07-Jul-18 17:13 45.622834 -122.676308 301 2912ft 204kts
07-Jul-18 17:14 45.651885 -122.747473 299 5062ft 228kts
07-Jul-18 17:15 45.674962 -122.834400 262 7230ft 257kts
07-Jul-18 17:16 45.637008 -122.920698 196 9369ft 288kts
07-Jul-18 17:17 45.558493 -122.900543 154 11387ft 315kts
07-Jul-18 17:18 45.508683 -122.793797 116 13564ft 344kts
07-Jul-18 17:19 45.470121 -122.667246 117 15970ft 360kts
07-Jul-18 17:20 45.429634 -122.536466 118 18148ft 377kts
07-Jul-18 17:21 45.386498 -122.398431 119 20195ft 393kts
07-Jul-18 17:22 45.345643 -122.268504 120 21960ft 404kts
07-Jul-18 17:23 45.298999 -122.121092 121 23657ft 419kts
07-Jul-18 17:24 45.250630 -121.969053 120 25228ft 433kts
07-Jul-18 17:25 45.209244 -121.808280 117 26636ft 449kts
07-Jul-18 17:26 45.166375 -121.640498 117 27939ft 461kts
07-Jul-18 17:27 45.121888 -121.468397 117 29115ft 473kts
07-Jul-18 17:28 45.078367 -121.301407 118 30315ft 479kts
07-Jul-18 17:29 45.032578 -121.126795 118 31426ft 484kts
07-Jul-18 17:30 44.985029 -120.947046 118 32241ft 493kts
07-Jul-18 17:31 44.936561 -120.765417 118 32960ft 500kts
07-Jul-18 17:32 44.888648 -120.587251 118 33802ft 503kts
07-Jul-18 17:33 44.838698 -120.403030 118 34672ft 509kts
07-Jul-18 17:34 44.789381 -120.222172 119 35718ft 506kts
07-Jul-18 17:35 44.739046 -120.038978 119 36596ft 505kts
07-Jul-18 17:36 44.688280 -119.855800 119 37101ft 505kts
07-Jul-18 17:37 44.637124 -119.673452 120 37107ft 502kts
07-Jul-18 17:38 44.582519 -119.495003 122 37110ft 498kts
07-Jul-18 17:39 44.526306 -119.321745 123 37099ft 497kts
07-Jul-18 17:40 44.469539 -119.146143 123 37100ft 497kts
07-Jul-18 17:41 44.413837 -118.970109 121 37101ft 501kts
07-Jul-18 17:42 44.360913 -118.790642 120 37102ft 500kts
07-Jul-18 17:43 44.307855 -118.611850 120 37103ft 500kts
07-Jul-18 17:44 44.254762 -118.434258 120 37104ft 500kts
07-Jul-18 17:45 44.203332 -118.263281 121 37094ft 498kts
07-Jul-18 17:46 44.149850 -118.086562 121 37095ft 499kts
07-Jul-18 17:47 44.095832 -117.909356 121 37073ft 499kts
07-Jul-18 17:48 44.041427 -117.732210 121 37012ft 500kts
07-Jul-18 17:49 43.986872 -117.555806 121 36992ft 500kts
07-Jul-18 17:50 43.931760 -117.378847 121 36994ft 499kts
07-Jul-18 17:51 43.879253 -117.211154 122 36995ft 499kts
07-Jul-18 17:52 43.823995 -117.035836 122 36996ft 499kts
07-Jul-18 17:53 43.768162 -116.860049 121 36998ft 503kts
07-Jul-18 17:54 43.711892 -116.683951 121 36999ft 502kts
07-Jul-18 17:55 43.655718 -116.509375 121 36988ft 503kts
07-Jul-18 17:56 43.599274 -116.335046 122 36981ft 502kts
07-Jul-18 17:57 43.543688 -116.167048 126 37010ft 498kts
07-Jul-18 17:58 43.475633 -116.002285 128 37016ft 495kts
07-Jul-18 17:59 43.406283 -115.839613 128 37001ft 495kts
07-Jul-18 18:00 43.336547 -115.675799 128 36995ft 501kts
07-Jul-18 18:01 43.266993 -115.511749 128 36997ft 500kts
07-Jul-18 18:02 43.197572 -115.347524 128 37028ft 500kts
07-Jul-18 18:03 43.128576 -115.183655 128 37091ft 499kts
07-Jul-18 18:04 43.059611 -115.019468 127 37096ft 499kts
07-Jul-18 18:05 42.990923 -114.855350 126 37098ft 499kts
07-Jul-18 18:06 42.922654 -114.691665 125 37088ft 490kts
07-Jul-18 18:07 42.856241 -114.532032 124 37107ft 491kts
07-Jul-18 18:08 42.789719 -114.371579 124 37109ft 490kts
07-Jul-18 18:09 42.723484 -114.211218 125 37100ft 490kts
07-Jul-18 18:10 42.656628 -114.049015 124 37082ft 496kts
07-Jul-18 18:11 42.593075 -113.894357 124 37076ft 494kts
07-Jul-18 18:11 42.520139 -113.782003 141 37079ft 480kts
07-Jul-18 18:12 42.425080 -113.655814 141 36359ft 478kts
07-Jul-18 18:13 42.330256 -113.530016 141 35385ft 476kts
07-Jul-18 18:14 42.237211 -113.405237 140 31272ft 480kts
07-Jul-18 18:15 42.145216 -113.280093 140 28259ft 469kts
07-Jul-18 18:16 42.055315 -113.157996 139 25352ft 455kts
07-Jul-18 18:17 41.968336 -113.043282 141 23383ft 421kts
07-Jul-18 18:18 41.886393 -112.939599 140 21963ft 411kts
07-Jul-18 18:19 41.815189 -112.849713 139 20759ft 404kts
07-Jul-18 18:20 41.734252 -112.747800 139 19370ft 398kts
07-Jul-18 18:21 41.655199 -112.647487 138 17981ft 389kts
07-Jul-18 18:22 41.574854 -112.553925 135 16654ft 381kts
07-Jul-18 18:23 41.500372 -112.458258 147 15887ft 364kts
07-Jul-18 18:24 41.427267 -112.362976 133 14839ft 370kts
07-Jul-18 18:25 41.360157 -112.263991 134 13674ft 355kts
07-Jul-18 18:26 41.297479 -112.171779 134 12940ft 319kts
07-Jul-18 18:27 41.238339 -112.085717 134 11828ft 317kts
07-Jul-18 18:28 41.164408 -112.029547 173 10758ft 304kts
07-Jul-18 18:29 41.083253 -112.023793 185 9689ft 283kts
07-Jul-18 18:31 41.014756 -112.022505 178 8366ft 245kts
07-Jul-18 18:32 40.949724 -112.015778 176 7085ft 226kts
07-Jul-18 18:33 40.892623 -112.007976 175 6042ft 202kts
07-Jul-18 18:34 40.842291 -112.003387 175 4893ft 176kts
07-Jul-18 18:35 40.795092 -111.997815 175 4235ft 121kts
07-Jul-18 18:36 40.784343 -111.995048 135 4235ft 3kts
07-Jul-18 18:37 40.785389 -111.993544 354 4235ft 17kts
07-Jul-18 18:38 40.790243 -111.994097 355 4235ft 14kts
07-Jul-18 18:39 40.791410 -111.987366 84 4235ft 24kts
07-Jul-18 18:40 40.789947 -111.981536 85 4235ft 14kts
07-Jul-18 18:41 40.788162 -111.980010 198 4235ft 16kts
07-Jul-18 18:42 40.787738 -111.981105 282 4235ft 0kts
07-Jul-18 18:43 40.787738 -111.981105 282 4235ft 0kts

Navigation Log

Ident Type
Flight plan parsing failed, navigation log unavailable